sensor_id;sensor_type;location;lat;lon;timestamp;temperature;humidity
8332;DHT22;4203;48.144;14.118;2022-12-10T00:00:36;0.60;99.90
8332;DHT22;4203;48.144;14.118;2022-12-10T00:03:04;0.60;99.90
8332;DHT22;4203;48.144;14.118;2022-12-10T00:05:33;0.60;99.90
8332;DHT22;4203;48.144;14.118;2022-12-10T00:08:00;0.60;99.90
8332;DHT22;4203;48.144;14.118;2022-12-10T00:10:27;0.60;99.90
8332;DHT22;4203;48.144;14.118;2022-12-10T00:12:55;0.50;99.90
8332;DHT22;4203;48.144;14.118;2022-12-10T00:15:22;0.50;99.90
8332;DHT22;4203;48.144;14.118;2022-12-10T00:17:50;0.50;99.90
8332;DHT22;4203;48.144;14.118;2022-12-10T00:20:17;0.50;99.90
8332;DHT22;4203;48.144;14.118;2022-12-10T00:22:44;0.50;99.90
8332;DHT22;4203;48.144;14.118;2022-12-10T00:25:11;0.60;99.90
8332;DHT22;4203;48.144;14.118;2022-12-10T00:27:38;0.60;99.90
8332;DHT22;4203;48.144;14.118;2022-12-10T00:30:06;0.50;99.90
8332;DHT22;4203;48.144;14.118;2022-12-10T00:32:34;0.50;99.90
8332;DHT22;4203;48.144;14.118;2022-12-10T00:35:02;0.50;99.90
8332;DHT22;4203;48.144;14.118;2022-12-10T00:37:30;0.40;99.90
8332;DHT22;4203;48.144;14.118;2022-12-10T00:39:57;0.50;99.90
8332;DHT22;4203;48.144;14.118;2022-12-10T00:42:25;0.50;99.90
8332;DHT22;4203;48.144;14.118;2022-12-10T00:44:52;0.50;99.90
8332;DHT22;4203;48.144;14.118;2022-12-10T00:47:19;0.50;99.90
8332;DHT22;4203;48.144;14.118;2022-12-10T00:49:46;0.50;99.90
8332;DHT22;4203;48.144;14.118;2022-12-10T00:52:14;0.50;99.90
8332;DHT22;4203;48.144;14.118;2022-12-10T00:54:41;0.50;99.90
8332;DHT22;4203;48.144;14.118;2022-12-10T00:57:09;0.50;99.90
8332;DHT22;4203;48.144;14.118;2022-12-10T00:59:36;0.50;99.90
8332;DHT22;4203;48.144;14.118;2022-12-10T01:02:03;0.50;99.90
8332;DHT22;4203;48.144;14.118;2022-12-10T01:04:32;0.50;99.90
8332;DHT22;4203;48.144;14.118;2022-12-10T01:06:59;0.60;99.90
8332;DHT22;4203;48.144;14.118;2022-12-10T01:09:29;0.60;99.90
8332;DHT22;4203;48.144;14.118;2022-12-10T01:12:00;0.50;99.90
8332;DHT22;4203;48.144;14.118;2022-12-10T01:14:29;0.40;99.90
8332;DHT22;4203;48.144;14.118;2022-12-10T01:17:00;0.30;99.90
8332;DHT22;4203;48.144;14.118;2022-12-10T01:19:29;0.30;99.90
8332;DHT22;4203;48.144;14.118;2022-12-10T01:21:57;0.40;99.90
8332;DHT22;4203;48.144;14.118;2022-12-10T01:24:25;0.30;99.90
8332;DHT22;4203;48.144;14.118;2022-12-10T01:26:54;0.30;99.90
8332;DHT22;4203;48.144;14.118;2022-12-10T01:29:22;0.40;99.90
8332;DHT22;4203;48.144;14.118;2022-12-10T01:31:51;0.40;99.90
8332;DHT22;4203;48.144;14.118;2022-12-10T01:34:18;0.50;99.90
8332;DHT22;4203;48.144;14.118;2022-12-10T01:36:49;0.60;99.90
8332;DHT22;4203;48.144;14.118;2022-12-10T01:39:18;0.50;99.90
8332;DHT22;4203;48.144;14.118;2022-12-10T01:41:48;0.50;99.90
8332;DHT22;4203;48.144;14.118;2022-12-10T01:47:21;0.40;99.90
8332;DHT22;4203;48.144;14.118;2022-12-10T01:49:48;0.40;99.90
8332;DHT22;4203;48.144;14.118;2022-12-10T01:52:16;0.40;99.90
8332;DHT22;4203;48.144;14.118;2022-12-10T01:54:45;0.40;99.90
8332;DHT22;4203;48.144;14.118;2022-12-10T01:57:14;0.40;99.90
8332;DHT22;4203;48.144;14.118;2022-12-10T01:59:44;0.40;99.90
8332;DHT22;4203;48.144;14.118;2022-12-10T02:02:16;0.40;99.90
8332;DHT22;4203;48.144;14.118;2022-12-10T02:04:55;0.40;99.90
8332;DHT22;4203;48.144;14.118;2022-12-10T02:07:29;0.40;99.90
8332;DHT22;4203;48.144;14.118;2022-12-10T02:10:07;0.40;99.90
8332;DHT22;4203;48.144;14.118;2022-12-10T02:12:42;0.90;99.90
8332;DHT22;4203;48.144;14.118;2022-12-10T02:15:14;0.40;99.90
8332;DHT22;4203;48.144;14.118;2022-12-10T02:17:45;0.40;99.90
8332;DHT22;4203;48.144;14.118;2022-12-10T02:20:17;0.50;99.90
8332;DHT22;4203;48.144;14.118;2022-12-10T02:22:48;0.50;99.90
8332;DHT22;4203;48.144;14.118;2022-12-10T02:25:18;0.50;99.90
8332;DHT22;4203;48.144;14.118;2022-12-10T02:27:52;0.50;99.90
8332;DHT22;4203;48.144;14.118;2022-12-10T02:30:22;0.50;99.90
8332;DHT22;4203;48.144;14.118;2022-12-10T02:32:50;0.50;99.90
8332;DHT22;4203;48.144;14.118;2022-12-10T02:35:22;0.50;99.90
8332;DHT22;4203;48.144;14.118;2022-12-10T02:37:53;0.50;99.90
8332;DHT22;4203;48.144;14.118;2022-12-10T02:40:25;0.50;99.90
8332;DHT22;4203;48.144;14.118;2022-12-10T02:42:53;0.40;99.90
8332;DHT22;4203;48.144;14.118;2022-12-10T02:45:24;0.50;99.90
8332;DHT22;4203;48.144;14.118;2022-12-10T02:47:54;0.50;99.90
8332;DHT22;4203;48.144;14.118;2022-12-10T02:50:23;0.50;99.90
8332;DHT22;4203;48.144;14.118;2022-12-10T02:52:51;0.50;99.90
8332;DHT22;4203;48.144;14.118;2022-12-10T02:55:18;0.50;99.90
8332;DHT22;4203;48.144;14.118;2022-12-10T02:57:59;0.50;99.90
8332;DHT22;4203;48.144;14.118;2022-12-10T03:00:32;0.40;99.90
8332;DHT22;4203;48.144;14.118;2022-12-10T03:03:17;0.50;99.90
8332;DHT22;4203;48.144;14.118;2022-12-10T03:05:53;0.40;99.90
8332;DHT22;4203;48.144;14.118;2022-12-10T03:08:25;0.40;99.90
8332;DHT22;4203;48.144;14.118;2022-12-10T03:10:59;0.40;99.90
8332;DHT22;4203;48.144;14.118;2022-12-10T03:13:31;0.40;99.90
8332;DHT22;4203;48.144;14.118;2022-12-10T03:16:02;0.40;99.90
8332;DHT22;4203;48.144;14.118;2022-12-10T03:18:31;0.50;99.90
8332;DHT22;4203;48.144;14.118;2022-12-10T03:21:04;0.50;99.90
8332;DHT22;4203;48.144;14.118;2022-12-10T03:23:33;0.50;99.90
8332;DHT22;4203;48.144;14.118;2022-12-10T03:26:02;0.50;99.90
8332;DHT22;4203;48.144;14.118;2022-12-10T03:28:32;0.50;99.90
8332;DHT22;4203;48.144;14.118;2022-12-10T03:31:03;0.50;99.90
8332;DHT22;4203;48.144;14.118;2022-12-10T03:33:31;0.40;99.90
8332;DHT22;4203;48.144;14.118;2022-12-10T03:36:00;0.40;99.90
8332;DHT22;4203;48.144;14.118;2022-12-10T03:38:27;0.40;99.90
8332;DHT22;4203;48.144;14.118;2022-12-10T03:40:55;0.40;99.90
8332;DHT22;4203;48.144;14.118;2022-12-10T03:43:22;0.30;99.90
8332;DHT22;4203;48.144;14.118;2022-12-10T03:45:49;0.40;99.90
8332;DHT22;4203;48.144;14.118;2022-12-10T03:48:18;0.30;99.90
8332;DHT22;4203;48.144;14.118;2022-12-10T03:50:45;0.40;99.90
8332;DHT22;4203;48.144;14.118;2022-12-10T03:53:12;0.30;99.90
8332;DHT22;4203;48.144;14.118;2022-12-10T03:55:39;0.30;99.90
8332;DHT22;4203;48.144;14.118;2022-12-10T03:58:06;0.40;99.90
8332;DHT22;4203;48.144;14.118;2022-12-10T04:00:34;0.40;99.90
8332;DHT22;4203;48.144;14.118;2022-12-10T04:03:01;0.40;99.90
8332;DHT22;4203;48.144;14.118;2022-12-10T04:05:29;0.40;99.90
8332;DHT22;4203;48.144;14.118;2022-12-10T04:07:56;0.30;99.90
8332;DHT22;4203;48.144;14.118;2022-12-10T04:10:24;0.30;99.90
8332;DHT22;4203;48.144;14.118;2022-12-10T04:12:51;0.30;99.90
8332;DHT22;4203;48.144;14.118;2022-12-10T04:15:32;0.30;99.90
8332;DHT22;4203;48.144;14.118;2022-12-10T04:18:16;0.30;99.90
8332;DHT22;4203;48.144;14.118;2022-12-10T04:20:45;0.20;99.90
8332;DHT22;4203;48.144;14.118;2022-12-10T04:23:29;0.20;99.90
8332;DHT22;4203;48.144;14.118;2022-12-10T04:26:13;0.30;99.90
8332;DHT22;4203;48.144;14.118;2022-12-10T04:28:58;0.30;99.90
8332;DHT22;4203;48.144;14.118;2022-12-10T04:31:25;0.30;99.90
8332;DHT22;4203;48.144;14.118;2022-12-10T04:33:52;0.30;99.90
8332;DHT22;4203;48.144;14.118;2022-12-10T04:36:21;0.30;99.90
8332;DHT22;4203;48.144;14.118;2022-12-10T04:38:48;0.30;99.90
8332;DHT22;4203;48.144;14.118;2022-12-10T04:41:15;0.30;99.90
8332;DHT22;4203;48.144;14.118;2022-12-10T04:43:42;0.30;99.90
8332;DHT22;4203;48.144;14.118;2022-12-10T04:46:09;0.30;99.90
8332;DHT22;4203;48.144;14.118;2022-12-10T04:48:37;0.30;99.90
8332;DHT22;4203;48.144;14.118;2022-12-10T04:51:04;0.40;99.90
8332;DHT22;4203;48.144;14.118;2022-12-10T04:53:33;0.40;99.90
8332;DHT22;4203;48.144;14.118;2022-12-10T04:56:00;0.40;99.90
8332;DHT22;4203;48.144;14.118;2022-12-10T04:58:27;0.40;99.90
8332;DHT22;4203;48.144;14.118;2022-12-10T05:01:02;0.40;99.90
8332;DHT22;4203;48.144;14.118;2022-12-10T05:03:29;0.40;99.90
8332;DHT22;4203;48.144;14.118;2022-12-10T05:06:00;0.40;99.90
8332;DHT22;4203;48.144;14.118;2022-12-10T05:08:28;0.40;99.90
8332;DHT22;4203;48.144;14.118;2022-12-10T05:11:00;0.40;99.90
8332;DHT22;4203;48.144;14.118;2022-12-10T05:13:30;0.30;99.90
8332;DHT22;4203;48.144;14.118;2022-12-10T05:15:57;0.40;99.90
8332;DHT22;4203;48.144;14.118;2022-12-10T05:18:25;0.30;99.90
8332;DHT22;4203;48.144;14.118;2022-12-10T05:20:52;0.40;99.90
8332;DHT22;4203;48.144;14.118;2022-12-10T05:23:19;0.30;99.90
8332;DHT22;4203;48.144;14.118;2022-12-10T05:26:00;0.30;99.90
8332;DHT22;4203;48.144;14.118;2022-12-10T05:28:29;0.30;99.90
8332;DHT22;4203;48.144;14.118;2022-12-10T05:30:56;0.40;99.90
8332;DHT22;4203;48.144;14.118;2022-12-10T05:33:24;0.40;99.90
8332;DHT22;4203;48.144;14.118;2022-12-10T05:35:53;0.40;99.90
8332;DHT22;4203;48.144;14.118;2022-12-10T05:38:21;0.40;99.90
8332;DHT22;4203;48.144;14.118;2022-12-10T05:40:48;0.40;99.90
8332;DHT22;4203;48.144;14.118;2022-12-10T05:43:17;0.30;99.90
8332;DHT22;4203;48.144;14.118;2022-12-10T05:45:44;0.30;99.90
8332;DHT22;4203;48.144;14.118;2022-12-10T05:48:13;0.40;99.90
8332;DHT22;4203;48.144;14.118;2022-12-10T05:50:40;0.40;99.90
8332;DHT22;4203;48.144;14.118;2022-12-10T05:53:08;0.30;99.90
8332;DHT22;4203;48.144;14.118;2022-12-10T05:55:35;0.30;99.90
8332;DHT22;4203;48.144;14.118;2022-12-10T05:58:02;0.40;99.90
8332;DHT22;4203;48.144;14.118;2022-12-10T06:00:31;0.30;99.90
8332;DHT22;4203;48.144;14.118;2022-12-10T06:02:58;0.30;99.90
8332;DHT22;4203;48.144;14.118;2022-12-10T06:05:25;0.40;99.90
8332;DHT22;4203;48.144;14.118;2022-12-10T06:07:53;0.40;99.90
8332;DHT22;4203;48.144;14.118;2022-12-10T06:10:20;0.40;99.90
8332;DHT22;4203;48.144;14.118;2022-12-10T06:12:47;0.40;99.90
8332;DHT22;4203;48.144;14.118;2022-12-10T06:15:14;0.40;99.90
8332;DHT22;4203;48.144;14.118;2022-12-10T06:17:43;0.40;99.90
8332;DHT22;4203;48.144;14.118;2022-12-10T06:20:11;0.40;99.90
8332;DHT22;4203;48.144;14.118;2022-12-10T06:22:38;0.50;99.90
8332;DHT22;4203;48.144;14.118;2022-12-10T06:25:06;0.40;99.90
8332;DHT22;4203;48.144;14.118;2022-12-10T06:27:33;0.40;99.90
8332;DHT22;4203;48.144;14.118;2022-12-10T06:30:00;0.40;99.90
8332;DHT22;4203;48.144;14.118;2022-12-10T06:32:27;0.40;99.90
8332;DHT22;4203;48.144;14.118;2022-12-10T06:34:56;0.40;99.90
8332;DHT22;4203;48.144;14.118;2022-12-10T06:37:23;0.30;99.90
8332;DHT22;4203;48.144;14.118;2022-12-10T06:39:50;0.40;99.90
8332;DHT22;4203;48.144;14.118;2022-12-10T06:42:18;0.50;99.90
8332;DHT22;4203;48.144;14.118;2022-12-10T06:44:46;0.40;99.90
8332;DHT22;4203;48.144;14.118;2022-12-10T06:47:13;0.30;99.90
8332;DHT22;4203;48.144;14.118;2022-12-10T06:49:41;0.30;99.90
8332;DHT22;4203;48.144;14.118;2022-12-10T06:52:09;0.30;99.90
8332;DHT22;4203;48.144;14.118;2022-12-10T06:54:36;0.40;99.90
8332;DHT22;4203;48.144;14.118;2022-12-10T06:57:03;0.40;99.90
8332;DHT22;4203;48.144;14.118;2022-12-10T06:59:31;0.40;99.90
8332;DHT22;4203;48.144;14.118;2022-12-10T07:01:58;0.40;99.90
8332;DHT22;4203;48.144;14.118;2022-12-10T07:04:25;0.50;99.90
8332;DHT22;4203;48.144;14.118;2022-12-10T07:06:52;0.40;99.90
8332;DHT22;4203;48.144;14.118;2022-12-10T07:09:21;0.40;99.90
8332;DHT22;4203;48.144;14.118;2022-12-10T07:11:49;0.40;99.90
8332;DHT22;4203;48.144;14.118;2022-12-10T07:14:17;0.40;99.90
8332;DHT22;4203;48.144;14.118;2022-12-10T07:16:44;0.50;99.90
8332;DHT22;4203;48.144;14.118;2022-12-10T07:19:12;0.50;99.90
8332;DHT22;4203;48.144;14.118;2022-12-10T07:21:40;0.50;99.90
8332;DHT22;4203;48.144;14.118;2022-12-10T07:24:10;0.50;99.90
8332;DHT22;4203;48.144;14.118;2022-12-10T07:26:41;0.50;99.90
8332;DHT22;4203;48.144;14.118;2022-12-10T07:29:12;0.60;99.90
8332;DHT22;4203;48.144;14.118;2022-12-10T07:31:40;0.60;99.90
8332;DHT22;4203;48.144;14.118;2022-12-10T07:34:09;0.60;99.90
8332;DHT22;4203;48.144;14.118;2022-12-10T07:36:37;0.60;99.90
8332;DHT22;4203;48.144;14.118;2022-12-10T07:39:05;0.70;99.90
8332;DHT22;4203;48.144;14.118;2022-12-10T07:41:33;0.70;99.90
8332;DHT22;4203;48.144;14.118;2022-12-10T07:44:03;0.70;99.90
8332;DHT22;4203;48.144;14.118;2022-12-10T07:46:32;0.70;99.90
8332;DHT22;4203;48.144;14.118;2022-12-10T07:49:00;0.70;99.90
8332;DHT22;4203;48.144;14.118;2022-12-10T07:51:28;0.70;99.90
8332;DHT22;4203;48.144;14.118;2022-12-10T07:53:56;0.70;99.90
8332;DHT22;4203;48.144;14.118;2022-12-10T07:56:24;0.70;99.90
8332;DHT22;4203;48.144;14.118;2022-12-10T07:58:53;0.80;99.90
8332;DHT22;4203;48.144;14.118;2022-12-10T08:01:23;0.70;99.90
8332;DHT22;4203;48.144;14.118;2022-12-10T08:03:51;0.60;99.90
8332;DHT22;4203;48.144;14.118;2022-12-10T08:06:20;0.60;99.90
8332;DHT22;4203;48.144;14.118;2022-12-10T08:08:48;0.60;99.90
8332;DHT22;4203;48.144;14.118;2022-12-10T08:11:18;0.70;99.90
8332;DHT22;4203;48.144;14.118;2022-12-10T08:13:46;0.70;99.90
8332;DHT22;4203;48.144;14.118;2022-12-10T08:16:15;0.70;99.90
8332;DHT22;4203;48.144;14.118;2022-12-10T08:18:44;0.80;99.90
8332;DHT22;4203;48.144;14.118;2022-12-10T08:21:13;0.80;99.90
8332;DHT22;4203;48.144;14.118;2022-12-10T08:23:41;0.80;99.90
8332;DHT22;4203;48.144;14.118;2022-12-10T08:26:10;0.80;99.90
8332;DHT22;4203;48.144;14.118;2022-12-10T08:28:38;0.80;99.90
8332;DHT22;4203;48.144;14.118;2022-12-10T08:31:07;0.80;99.90
8332;DHT22;4203;48.144;14.118;2022-12-10T08:33:35;0.90;99.90
8332;DHT22;4203;48.144;14.118;2022-12-10T08:36:05;0.90;99.90
8332;DHT22;4203;48.144;14.118;2022-12-10T08:38:33;1.00;99.90
8332;DHT22;4203;48.144;14.118;2022-12-10T08:41:05;1.00;99.90
8332;DHT22;4203;48.144;14.118;2022-12-10T08:43:33;1.00;99.90
8332;DHT22;4203;48.144;14.118;2022-12-10T08:46:00;1.00;99.90
8332;DHT22;4203;48.144;14.118;2022-12-10T08:48:28;1.10;99.90
8332;DHT22;4203;48.144;14.118;2022-12-10T08:50:55;1.10;99.90
8332;DHT22;4203;48.144;14.118;2022-12-10T08:53:24;1.10;99.90
8332;DHT22;4203;48.144;14.118;2022-12-10T08:55:51;1.10;99.90
8332;DHT22;4203;48.144;14.118;2022-12-10T08:58:19;1.20;99.90
8332;DHT22;4203;48.144;14.118;2022-12-10T09:00:46;1.20;99.90
8332;DHT22;4203;48.144;14.118;2022-12-10T09:03:14;1.30;99.90
8332;DHT22;4203;48.144;14.118;2022-12-10T09:05:42;1.40;99.90
8332;DHT22;4203;48.144;14.118;2022-12-10T09:08:09;1.50;99.90
8332;DHT22;4203;48.144;14.118;2022-12-10T09:10:38;1.50;99.90
8332;DHT22;4203;48.144;14.118;2022-12-10T09:13:06;1.60;99.90
8332;DHT22;4203;48.144;14.118;2022-12-10T09:15:33;1.70;99.90
8332;DHT22;4203;48.144;14.118;2022-12-10T09:18:01;1.70;99.90
8332;DHT22;4203;48.144;14.118;2022-12-10T09:20:28;1.70;99.90
8332;DHT22;4203;48.144;14.118;2022-12-10T09:22:55;1.70;99.90
8332;DHT22;4203;48.144;14.118;2022-12-10T09:25:22;1.70;99.90
8332;DHT22;4203;48.144;14.118;2022-12-10T09:27:51;1.80;99.90
8332;DHT22;4203;48.144;14.118;2022-12-10T09:30:18;1.80;99.90
8332;DHT22;4203;48.144;14.118;2022-12-10T09:32:45;1.80;99.90
8332;DHT22;4203;48.144;14.118;2022-12-10T09:35:12;1.80;99.90
8332;DHT22;4203;48.144;14.118;2022-12-10T09:37:39;1.80;99.90
8332;DHT22;4203;48.144;14.118;2022-12-10T09:40:07;1.80;99.90
8332;DHT22;4203;48.144;14.118;2022-12-10T09:42:43;1.80;99.90
8332;DHT22;4203;48.144;14.118;2022-12-10T09:45:20;1.90;99.90
8332;DHT22;4203;48.144;14.118;2022-12-10T09:47:55;1.90;99.90
8332;DHT22;4203;48.144;14.118;2022-12-10T09:50:31;1.90;99.90
8332;DHT22;4203;48.144;14.118;2022-12-10T09:53:02;1.90;99.90
8332;DHT22;4203;48.144;14.118;2022-12-10T09:55:34;1.90;99.90
8332;DHT22;4203;48.144;14.118;2022-12-10T09:58:03;1.90;99.90
8332;DHT22;4203;48.144;14.118;2022-12-10T10:00:36;1.90;99.90
8332;DHT22;4203;48.144;14.118;2022-12-10T10:03:04;1.90;99.90
8332;DHT22;4203;48.144;14.118;2022-12-10T10:05:35;2.00;99.90
8332;DHT22;4203;48.144;14.118;2022-12-10T10:08:05;2.00;99.90
8332;DHT22;4203;48.144;14.118;2022-12-10T10:10:35;2.10;99.90
8332;DHT22;4203;48.144;14.118;2022-12-10T10:13:14;2.00;99.90
8332;DHT22;4203;48.144;14.118;2022-12-10T10:15:44;2.10;99.90
8332;DHT22;4203;48.144;14.118;2022-12-10T10:18:17;2.10;99.90
8332;DHT22;4203;48.144;14.118;2022-12-10T10:20:49;2.00;99.90
8332;DHT22;4203;48.144;14.118;2022-12-10T10:23:17;2.10;99.90
8332;DHT22;4203;48.144;14.118;2022-12-10T10:25:44;2.20;99.90
8332;DHT22;4203;48.144;14.118;2022-12-10T10:28:15;2.20;99.90
8332;DHT22;4203;48.144;14.118;2022-12-10T10:30:45;2.20;99.90
8332;DHT22;4203;48.144;14.118;2022-12-10T10:33:14;2.20;99.90
8332;DHT22;4203;48.144;14.118;2022-12-10T10:35:44;2.30;99.90
8332;DHT22;4203;48.144;14.118;2022-12-10T10:38:18;2.30;99.90
8332;DHT22;4203;48.144;14.118;2022-12-10T10:40:50;2.30;99.90
8332;DHT22;4203;48.144;14.118;2022-12-10T10:43:22;2.30;99.90
8332;DHT22;4203;48.144;14.118;2022-12-10T10:45:54;2.40;99.90
8332;DHT22;4203;48.144;14.118;2022-12-10T10:48:25;2.40;99.90
8332;DHT22;4203;48.144;14.118;2022-12-10T10:50:55;2.40;99.90
8332;DHT22;4203;48.144;14.118;2022-12-10T10:53:31;2.40;99.90
8332;DHT22;4203;48.144;14.118;2022-12-10T10:56:05;2.40;99.90
8332;DHT22;4203;48.144;14.118;2022-12-10T10:58:34;2.40;99.90
8332;DHT22;4203;48.144;14.118;2022-12-10T11:01:04;2.40;99.90
8332;DHT22;4203;48.144;14.118;2022-12-10T11:03:35;2.40;99.90
8332;DHT22;4203;48.144;14.118;2022-12-10T11:06:06;2.40;99.90
8332;DHT22;4203;48.144;14.118;2022-12-10T11:08:36;2.40;99.90
8332;DHT22;4203;48.144;14.118;2022-12-10T11:11:05;2.40;99.90
8332;DHT22;4203;48.144;14.118;2022-12-10T11:13:34;2.50;99.90
8332;DHT22;4203;48.144;14.118;2022-12-10T11:16:12;2.50;99.90
8332;DHT22;4203;48.144;14.118;2022-12-10T11:18:52;2.40;99.90
8332;DHT22;4203;48.144;14.118;2022-12-10T11:21:22;2.50;99.90
8332;DHT22;4203;48.144;14.118;2022-12-10T11:23:52;2.50;99.90
8332;DHT22;4203;48.144;14.118;2022-12-10T11:29:41;2.50;99.90
8332;DHT22;4203;48.144;14.118;2022-12-10T11:32:22;2.50;99.90
8332;DHT22;4203;48.144;14.118;2022-12-10T11:35:02;2.50;99.90
8332;DHT22;4203;48.144;14.118;2022-12-10T11:37:36;2.50;99.90
8332;DHT22;4203;48.144;14.118;2022-12-10T11:40:19;2.40;99.90
8332;DHT22;4203;48.144;14.118;2022-12-10T11:42:53;2.30;99.90
8332;DHT22;4203;48.144;14.118;2022-12-10T11:45:26;2.30;99.90
8332;DHT22;4203;48.144;14.118;2022-12-10T11:48:04;2.20;99.90
8332;DHT22;4203;48.144;14.118;2022-12-10T11:50:41;2.10;99.90
8332;DHT22;4203;48.144;14.118;2022-12-10T11:53:38;2.20;99.90
8332;DHT22;4203;48.144;14.118;2022-12-10T11:56:17;2.20;99.90
8332;DHT22;4203;48.144;14.118;2022-12-10T11:58:56;2.20;99.90
8332;DHT22;4203;48.144;14.118;2022-12-10T12:01:37;2.20;99.90
8332;DHT22;4203;48.144;14.118;2022-12-10T12:04:22;2.20;99.90
8332;DHT22;4203;48.144;14.118;2022-12-10T12:09:48;2.20;99.90
8332;DHT22;4203;48.144;14.118;2022-12-10T12:12:28;2.10;99.90
8332;DHT22;4203;48.144;14.118;2022-12-10T12:15:03;2.10;99.90
8332;DHT22;4203;48.144;14.118;2022-12-10T12:17:34;2.10;99.90
8332;DHT22;4203;48.144;14.118;2022-12-10T12:20:15;2.00;99.90
8332;DHT22;4203;48.144;14.118;2022-12-10T12:22:48;2.00;99.90
8332;DHT22;4203;48.144;14.118;2022-12-10T12:25:22;2.00;99.90
8332;DHT22;4203;48.144;14.118;2022-12-10T12:27:53;1.90;99.90
8332;DHT22;4203;48.144;14.118;2022-12-10T12:30:23;1.90;99.90
8332;DHT22;4203;48.144;14.118;2022-12-10T12:32:55;1.90;99.90
8332;DHT22;4203;48.144;14.118;2022-12-10T12:35:40;2.00;99.90
8332;DHT22;4203;48.144;14.118;2022-12-10T12:38:21;1.90;99.90
8332;DHT22;4203;48.144;14.118;2022-12-10T12:40:53;1.90;99.90
8332;DHT22;4203;48.144;14.118;2022-12-10T12:43:26;1.90;99.90
8332;DHT22;4203;48.144;14.118;2022-12-10T12:45:55;1.90;99.90
8332;DHT22;4203;48.144;14.118;2022-12-10T12:48:26;1.90;99.90
8332;DHT22;4203;48.144;14.118;2022-12-10T12:51:00;1.90;99.90
8332;DHT22;4203;48.144;14.118;2022-12-10T12:53:30;1.90;99.90
8332;DHT22;4203;48.144;14.118;2022-12-10T12:56:01;1.90;99.90
8332;DHT22;4203;48.144;14.118;2022-12-10T12:58:39;1.90;99.90
8332;DHT22;4203;48.144;14.118;2022-12-10T13:01:18;1.90;99.90
8332;DHT22;4203;48.144;14.118;2022-12-10T13:03:48;1.80;99.90
8332;DHT22;4203;48.144;14.118;2022-12-10T13:06:21;1.70;99.90
8332;DHT22;4203;48.144;14.118;2022-12-10T13:08:52;1.80;99.90
8332;DHT22;4203;48.144;14.118;2022-12-10T13:11:31;1.70;99.90
8332;DHT22;4203;48.144;14.118;2022-12-10T13:14:29;1.60;99.90
8332;DHT22;4203;48.144;14.118;2022-12-10T13:17:25;1.60;99.90
8332;DHT22;4203;48.144;14.118;2022-12-10T13:19:53;1.60;99.90
8332;DHT22;4203;48.144;14.118;2022-12-10T13:22:41;1.60;99.90
8332;DHT22;4203;48.144;14.118;2022-12-10T13:25:13;1.60;99.90
8332;DHT22;4203;48.144;14.118;2022-12-10T13:27:41;1.60;99.90
8332;DHT22;4203;48.144;14.118;2022-12-10T13:30:31;1.50;99.90
8332;DHT22;4203;48.144;14.118;2022-12-10T13:33:18;1.40;99.90
8332;DHT22;4203;48.144;14.118;2022-12-10T13:35:56;1.40;99.90
8332;DHT22;4203;48.144;14.118;2022-12-10T13:38:26;1.50;99.90
8332;DHT22;4203;48.144;14.118;2022-12-10T13:40:59;1.50;99.90
8332;DHT22;4203;48.144;14.118;2022-12-10T13:43:52;1.40;99.90
8332;DHT22;4203;48.144;14.118;2022-12-10T13:47:03;1.40;99.90
8332;DHT22;4203;48.144;14.118;2022-12-10T13:49:40;1.40;99.90
8332;DHT22;4203;48.144;14.118;2022-12-10T13:52:16;1.40;99.90
8332;DHT22;4203;48.144;14.118;2022-12-10T13:55:09;1.40;99.90
8332;DHT22;4203;48.144;14.118;2022-12-10T13:58:08;1.40;99.90
8332;DHT22;4203;48.144;14.118;2022-12-10T14:00:44;1.50;99.90
8332;DHT22;4203;48.144;14.118;2022-12-10T14:06:26;1.50;99.90
8332;DHT22;4203;48.144;14.118;2022-12-10T14:09:00;1.60;99.90
8332;DHT22;4203;48.144;14.118;2022-12-10T14:11:32;1.60;99.90
8332;DHT22;4203;48.144;14.118;2022-12-10T14:14:01;1.60;99.90
8332;DHT22;4203;48.144;14.118;2022-12-10T14:16:31;1.50;99.90
8332;DHT22;4203;48.144;14.118;2022-12-10T14:19:03;1.50;99.90
8332;DHT22;4203;48.144;14.118;2022-12-10T14:21:33;1.50;99.90
8332;DHT22;4203;48.144;14.118;2022-12-10T14:24:01;1.40;99.90
8332;DHT22;4203;48.144;14.118;2022-12-10T14:26:32;1.40;99.90
8332;DHT22;4203;48.144;14.118;2022-12-10T14:29:02;1.40;99.90
8332;DHT22;4203;48.144;14.118;2022-12-10T14:31:42;1.40;99.90
8332;DHT22;4203;48.144;14.118;2022-12-10T14:34:14;1.40;99.90
8332;DHT22;4203;48.144;14.118;2022-12-10T14:36:45;1.40;99.90
8332;DHT22;4203;48.144;14.118;2022-12-10T14:39:14;1.40;99.90
8332;DHT22;4203;48.144;14.118;2022-12-10T14:41:45;1.40;99.90
8332;DHT22;4203;48.144;14.118;2022-12-10T14:44:16;1.30;99.90
8332;DHT22;4203;48.144;14.118;2022-12-10T14:46:43;1.30;99.90
8332;DHT22;4203;48.144;14.118;2022-12-10T14:49:17;1.40;99.90
8332;DHT22;4203;48.144;14.118;2022-12-10T14:51:45;1.30;99.90
8332;DHT22;4203;48.144;14.118;2022-12-10T14:54:25;1.30;99.90
8332;DHT22;4203;48.144;14.118;2022-12-10T14:56:55;1.30;99.90
8332;DHT22;4203;48.144;14.118;2022-12-10T14:59:25;1.30;99.90
8332;DHT22;4203;48.144;14.118;2022-12-10T15:01:57;1.30;99.90
8332;DHT22;4203;48.144;14.118;2022-12-10T15:04:30;1.30;99.90
8332;DHT22;4203;48.144;14.118;2022-12-10T15:07:00;1.40;99.90
8332;DHT22;4203;48.144;14.118;2022-12-10T15:09:30;1.30;99.90
8332;DHT22;4203;48.144;14.118;2022-12-10T15:12:00;1.30;99.90
8332;DHT22;4203;48.144;14.118;2022-12-10T15:14:28;1.30;99.90
8332;DHT22;4203;48.144;14.118;2022-12-10T15:16:58;1.30;99.90
8332;DHT22;4203;48.144;14.118;2022-12-10T15:19:32;1.20;99.90
8332;DHT22;4203;48.144;14.118;2022-12-10T15:22:01;1.20;99.90
8332;DHT22;4203;48.144;14.118;2022-12-10T15:24:36;1.20;99.90
8332;DHT22;4203;48.144;14.118;2022-12-10T15:27:16;1.20;99.90
8332;DHT22;4203;48.144;14.118;2022-12-10T15:29:45;1.20;99.90
8332;DHT22;4203;48.144;14.118;2022-12-10T15:32:14;1.20;99.90
8332;DHT22;4203;48.144;14.118;2022-12-10T15:34:45;1.20;99.90
8332;DHT22;4203;48.144;14.118;2022-12-10T15:37:18;1.20;99.90
8332;DHT22;4203;48.144;14.118;2022-12-10T15:39:49;1.10;99.90
8332;DHT22;4203;48.144;14.118;2022-12-10T15:42:38;1.20;99.90
8332;DHT22;4203;48.144;14.118;2022-12-10T15:45:18;1.10;99.90
8332;DHT22;4203;48.144;14.118;2022-12-10T15:47:46;1.10;99.90
8332;DHT22;4203;48.144;14.118;2022-12-10T15:50:13;1.00;99.90
8332;DHT22;4203;48.144;14.118;2022-12-10T15:52:42;0.90;99.90
8332;DHT22;4203;48.144;14.118;2022-12-10T15:55:10;0.90;99.90
8332;DHT22;4203;48.144;14.118;2022-12-10T15:57:40;0.90;99.90
8332;DHT22;4203;48.144;14.118;2022-12-10T16:00:16;0.90;99.90
8332;DHT22;4203;48.144;14.118;2022-12-10T16:02:47;0.90;99.90
8332;DHT22;4203;48.144;14.118;2022-12-10T16:05:16;0.90;99.90
8332;DHT22;4203;48.144;14.118;2022-12-10T16:07:45;0.90;99.90
8332;DHT22;4203;48.144;14.118;2022-12-10T16:10:15;0.90;99.90
8332;DHT22;4203;48.144;14.118;2022-12-10T16:12:46;1.00;99.90
8332;DHT22;4203;48.144;14.118;2022-12-10T16:15:18;1.00;99.90
8332;DHT22;4203;48.144;14.118;2022-12-10T16:17:46;1.00;99.90
8332;DHT22;4203;48.144;14.118;2022-12-10T16:20:19;0.90;99.90
8332;DHT22;4203;48.144;14.118;2022-12-10T16:22:46;0.90;99.90
8332;DHT22;4203;48.144;14.118;2022-12-10T16:25:14;0.90;99.90
8332;DHT22;4203;48.144;14.118;2022-12-10T16:27:42;0.90;99.90
8332;DHT22;4203;48.144;14.118;2022-12-10T16:30:17;0.90;99.90
8332;DHT22;4203;48.144;14.118;2022-12-10T16:32:45;0.90;99.90
8332;DHT22;4203;48.144;14.118;2022-12-10T16:35:13;0.90;99.90
8332;DHT22;4203;48.144;14.118;2022-12-10T16:37:42;0.90;99.90